sensor_id;sensor_type;location;lat;lon;timestamp;P1;durP1;ratioP1;P2;durP2;ratioP2
58992;SDS011;44782;0.000;0.000;2024-02-21T00:00:10;3.50;;;2.90;;
58992;SDS011;44782;0.000;0.000;2024-02-21T00:02:26;3.27;;;2.50;;
58992;SDS011;44782;0.000;0.000;2024-02-21T00:04:43;3.30;;;2.73;;
58992;SDS011;44782;0.000;0.000;2024-02-21T00:06:59;4.13;;;2.57;;
58992;SDS011;44782;0.000;0.000;2024-02-21T00:09:14;2.67;;;2.47;;
58992;SDS011;44782;0.000;0.000;2024-02-21T00:11:30;4.20;;;2.93;;
58992;SDS011;44782;0.000;0.000;2024-02-21T00:13:46;3.20;;;2.67;;
58992;SDS011;44782;0.000;0.000;2024-02-21T00:16:02;3.37;;;2.70;;
58992;SDS011;44782;0.000;0.000;2024-02-21T00:18:18;3.13;;;2.57;;
58992;SDS011;44782;0.000;0.000;2024-02-21T00:20:33;3.27;;;2.50;;
58992;SDS011;44782;0.000;0.000;2024-02-21T00:22:49;3.10;;;2.60;;
58992;SDS011;44782;0.000;0.000;2024-02-21T00:25:05;2.70;;;2.40;;
58992;SDS011;44782;0.000;0.000;2024-02-21T00:27:22;3.00;;;2.70;;
58992;SDS011;44782;0.000;0.000;2024-02-21T00:29:37;2.87;;;2.60;;
58992;SDS011;44782;0.000;0.000;2024-02-21T00:31:53;2.60;;;2.40;;
58992;SDS011;44782;0.000;0.000;2024-02-21T00:34:09;2.93;;;2.63;;
58992;SDS011;44782;0.000;0.000;2024-02-21T00:36:25;3.60;;;2.50;;
58992;SDS011;44782;0.000;0.000;2024-02-21T00:38:41;2.50;;;2.30;;
58992;SDS011;44782;0.000;0.000;2024-02-21T00:40:57;2.67;;;2.47;;
58992;SDS011;44782;0.000;0.000;2024-02-21T00:43:12;2.83;;;2.33;;
58992;SDS011;44782;0.000;0.000;2024-02-21T00:45:28;2.63;;;2.43;;
58992;SDS011;44782;0.000;0.000;2024-02-21T00:47:44;3.60;;;2.60;;
58992;SDS011;44782;0.000;0.000;2024-02-21T00:50:00;2.60;;;2.40;;
58992;SDS011;44782;0.000;0.000;2024-02-21T00:52:16;2.60;;;2.40;;
58992;SDS011;44782;0.000;0.000;2024-02-21T00:54:32;2.70;;;2.50;;
58992;SDS011;44782;0.000;0.000;2024-02-21T00:56:47;3.57;;;2.80;;
58992;SDS011;44782;0.000;0.000;2024-02-21T00:59:03;2.50;;;2.20;;
58992;SDS011;44782;0.000;0.000;2024-02-21T01:01:22;2.97;;;2.23;;
58992;SDS011;44782;0.000;0.000;2024-02-21T01:03:40;2.40;;;2.20;;
58992;SDS011;44782;0.000;0.000;2024-02-21T01:05:56;3.00;;;2.10;;
58992;SDS011;44782;0.000;0.000;2024-02-21T01:08:12;2.87;;;2.40;;
58992;SDS011;44782;0.000;0.000;2024-02-21T01:10:27;2.30;;;2.10;;
58992;SDS011;44782;0.000;0.000;2024-02-21T01:12:43;2.20;;;2.00;;
58992;SDS011;44782;0.000;0.000;2024-02-21T01:14:59;2.20;;;2.00;;
58992;SDS011;44782;0.000;0.000;2024-02-21T01:17:15;3.03;;;2.20;;
58992;SDS011;44782;0.000;0.000;2024-02-21T01:19:30;2.40;;;2.20;;
58992;SDS011;44782;0.000;0.000;2024-02-21T01:21:46;3.03;;;2.73;;
58992;SDS011;44782;0.000;0.000;2024-02-21T01:24:02;2.73;;;2.23;;
58992;SDS011;44782;0.000;0.000;2024-02-21T01:26:18;2.57;;;2.30;;
58992;SDS011;44782;0.000;0.000;2024-02-21T01:28:34;2.30;;;2.10;;
58992;SDS011;44782;0.000;0.000;2024-02-21T01:30:50;3.30;;;2.67;;
58992;SDS011;44782;0.000;0.000;2024-02-21T01:33:06;2.67;;;2.47;;
58992;SDS011;44782;0.000;0.000;2024-02-21T01:35:22;2.40;;;2.20;;
58992;SDS011;44782;0.000;0.000;2024-02-21T01:37:38;2.80;;;2.30;;
58992;SDS011;44782;0.000;0.000;2024-02-21T01:39:54;2.83;;;2.50;;
58992;SDS011;44782;0.000;0.000;2024-02-21T01:42:10;2.40;;;2.20;;
58992;SDS011;44782;0.000;0.000;2024-02-21T01:44:26;2.33;;;2.13;;
58992;SDS011;44782;0.000;0.000;2024-02-21T01:46:41;2.67;;;2.20;;
58992;SDS011;44782;0.000;0.000;2024-02-21T01:48:57;2.33;;;2.10;;
58992;SDS011;44782;0.000;0.000;2024-02-21T01:51:13;2.67;;;2.00;;
58992;SDS011;44782;0.000;0.000;2024-02-21T01:53:30;2.63;;;2.37;;
58992;SDS011;44782;0.000;0.000;2024-02-21T01:55:53;3.33;;;2.50;;
58992;SDS011;44782;0.000;0.000;2024-02-21T01:58:09;2.30;;;2.10;;
58992;SDS011;44782;0.000;0.000;2024-02-21T02:00:24;2.23;;;2.03;;
58992;SDS011;44782;0.000;0.000;2024-02-21T02:02:41;2.40;;;2.20;;
58992;SDS011;44782;0.000;0.000;2024-02-21T02:04:57;2.20;;;2.00;;
58992;SDS011;44782;0.000;0.000;2024-02-21T02:09:38;2.40;;;2.10;;
58992;SDS011;44782;0.000;0.000;2024-02-21T02:11:54;2.37;;;2.17;;
58992;SDS011;44782;0.000;0.000;2024-02-21T02:14:10;2.30;;;2.10;;
58992;SDS011;44782;0.000;0.000;2024-02-21T02:16:25;2.40;;;2.20;;
58992;SDS011;44782;0.000;0.000;2024-02-21T02:18:41;2.47;;;2.10;;
58992;SDS011;44782;0.000;0.000;2024-02-21T02:20:57;2.60;;;2.20;;
58992;SDS011;44782;0.000;0.000;2024-02-21T02:25:37;2.80;;;2.20;;
58992;SDS011;44782;0.000;0.000;2024-02-21T02:27:54;2.37;;;2.17;;
58992;SDS011;44782;0.000;0.000;2024-02-21T02:30:10;2.70;;;2.33;;
58992;SDS011;44782;0.000;0.000;2024-02-21T02:32:26;2.40;;;2.20;;
58992;SDS011;44782;0.000;0.000;2024-02-21T02:34:42;2.83;;;2.30;;
58992;SDS011;44782;0.000;0.000;2024-02-21T02:36:58;2.40;;;2.20;;
58992;SDS011;44782;0.000;0.000;2024-02-21T02:39:13;2.53;;;2.13;;
58992;SDS011;44782;0.000;0.000;2024-02-21T02:41:29;3.83;;;2.33;;
58992;SDS011;44782;0.000;0.000;2024-02-21T02:43:45;2.27;;;1.90;;
58992;SDS011;44782;0.000;0.000;2024-02-21T02:46:00;2.43;;;2.23;;
58992;SDS011;44782;0.000;0.000;2024-02-21T02:48:16;2.23;;;2.03;;
58992;SDS011;44782;0.000;0.000;2024-02-21T02:50:33;2.50;;;2.30;;
58992;SDS011;44782;0.000;0.000;2024-02-21T02:52:48;2.43;;;2.17;;
58992;SDS011;44782;0.000;0.000;2024-02-21T02:55:05;2.37;;;2.17;;
58992;SDS011;44782;0.000;0.000;2024-02-21T02:57:21;2.40;;;2.20;;
58992;SDS011;44782;0.000;0.000;2024-02-21T02:59:37;2.37;;;2.00;;
58992;SDS011;44782;0.000;0.000;2024-02-21T03:01:52;2.13;;;1.93;;
58992;SDS011;44782;0.000;0.000;2024-02-21T03:04:08;2.40;;;2.20;;
58992;SDS011;44782;0.000;0.000;2024-02-21T03:06:24;2.20;;;2.00;;
58992;SDS011;44782;0.000;0.000;2024-02-21T03:08:39;2.30;;;2.10;;
58992;SDS011;44782;0.000;0.000;2024-02-21T03:10:55;2.40;;;2.20;;
58992;SDS011;44782;0.000;0.000;2024-02-21T03:13:11;3.27;;;2.30;;
58992;SDS011;44782;0.000;0.000;2024-02-21T03:15:26;2.80;;;2.50;;
58992;SDS011;44782;0.000;0.000;2024-02-21T03:17:42;2.70;;;2.40;;
58992;SDS011;44782;0.000;0.000;2024-02-21T03:19:58;2.40;;;2.20;;
58992;SDS011;44782;0.000;0.000;2024-02-21T03:22:19;2.40;;;2.20;;
58992;SDS011;44782;0.000;0.000;2024-02-21T03:24:35;2.30;;;2.10;;
58992;SDS011;44782;0.000;0.000;2024-02-21T03:26:51;2.10;;;1.90;;
58992;SDS011;44782;0.000;0.000;2024-02-21T03:29:06;2.27;;;2.03;;
58992;SDS011;44782;0.000;0.000;2024-02-21T03:31:22;2.50;;;2.13;;
58992;SDS011;44782;0.000;0.000;2024-02-21T03:33:39;2.33;;;2.13;;
58992;SDS011;44782;0.000;0.000;2024-02-21T03:35:56;1.90;;;1.80;;
58992;SDS011;44782;0.000;0.000;2024-02-21T03:38:11;2.50;;;2.20;;
58992;SDS011;44782;0.000;0.000;2024-02-21T03:40:27;2.07;;;1.87;;
58992;SDS011;44782;0.000;0.000;2024-02-21T03:42:43;2.20;;;2.00;;
58992;SDS011;44782;0.000;0.000;2024-02-21T03:44:58;1.90;;;1.80;;
58992;SDS011;44782;0.000;0.000;2024-02-21T03:47:14;2.10;;;1.83;;
58992;SDS011;44782;0.000;0.000;2024-02-21T03:49:33;1.90;;;1.70;;
58992;SDS011;44782;0.000;0.000;2024-02-21T03:51:49;2.00;;;1.80;;
58992;SDS011;44782;0.000;0.000;2024-02-21T03:54:05;2.20;;;1.90;;
58992;SDS011;44782;0.000;0.000;2024-02-21T03:56:20;2.07;;;1.87;;
58992;SDS011;44782;0.000;0.000;2024-02-21T03:58:36;2.33;;;2.00;;
58992;SDS011;44782;0.000;0.000;2024-02-21T04:00:52;1.87;;;1.77;;
58992;SDS011;44782;0.000;0.000;2024-02-21T04:03:08;2.53;;;1.83;;
58992;SDS011;44782;0.000;0.000;2024-02-21T04:05:24;2.70;;;2.03;;
58992;SDS011;44782;0.000;0.000;2024-02-21T04:07:40;2.20;;;2.00;;
58992;SDS011;44782;0.000;0.000;2024-02-21T04:09:55;2.60;;;2.40;;
58992;SDS011;44782;0.000;0.000;2024-02-21T04:12:11;2.37;;;2.00;;
58992;SDS011;44782;0.000;0.000;2024-02-21T04:14:27;2.20;;;2.00;;
58992;SDS011;44782;0.000;0.000;2024-02-21T04:16:42;2.47;;;2.07;;
58992;SDS011;44782;0.000;0.000;2024-02-21T04:18:58;2.40;;;2.10;;
58992;SDS011;44782;0.000;0.000;2024-02-21T04:21:14;2.30;;;2.10;;
58992;SDS011;44782;0.000;0.000;2024-02-21T04:23:31;2.33;;;2.13;;
58992;SDS011;44782;0.000;0.000;2024-02-21T04:25:47;2.53;;;2.30;;
58992;SDS011;44782;0.000;0.000;2024-02-21T04:28:03;2.70;;;2.20;;
58992;SDS011;44782;0.000;0.000;2024-02-21T04:30:19;2.47;;;2.23;;
58992;SDS011;44782;0.000;0.000;2024-02-21T04:32:34;2.70;;;2.50;;
58992;SDS011;44782;0.000;0.000;2024-02-21T04:34:50;2.50;;;2.10;;
58992;SDS011;44782;0.000;0.000;2024-02-21T04:37:06;2.50;;;2.30;;
58992;SDS011;44782;0.000;0.000;2024-02-21T04:39:21;2.60;;;2.40;;
58992;SDS011;44782;0.000;0.000;2024-02-21T04:41:37;2.40;;;2.20;;
58992;SDS011;44782;0.000;0.000;2024-02-21T04:43:53;2.50;;;2.20;;
58992;SDS011;44782;0.000;0.000;2024-02-21T04:46:08;2.27;;;2.07;;
58992;SDS011;44782;0.000;0.000;2024-02-21T04:48:24;2.23;;;2.03;;
58992;SDS011;44782;0.000;0.000;2024-02-21T04:50:40;2.53;;;2.30;;
58992;SDS011;44782;0.000;0.000;2024-02-21T04:52:56;2.77;;;2.20;;
58992;SDS011;44782;0.000;0.000;2024-02-21T04:55:11;2.43;;;2.23;;
58992;SDS011;44782;0.000;0.000;2024-02-21T04:57:27;2.33;;;2.10;;
58992;SDS011;44782;0.000;0.000;2024-02-21T04:59:46;2.30;;;2.03;;
58992;SDS011;44782;0.000;0.000;2024-02-21T05:02:04;3.10;;;2.40;;
58992;SDS011;44782;0.000;0.000;2024-02-21T05:04:20;2.50;;;2.27;;
58992;SDS011;44782;0.000;0.000;2024-02-21T05:06:39;2.00;;;1.80;;
58992;SDS011;44782;0.000;0.000;2024-02-21T05:08:55;2.30;;;2.10;;
58992;SDS011;44782;0.000;0.000;2024-02-21T05:11:12;2.43;;;2.20;;
58992;SDS011;44782;0.000;0.000;2024-02-21T05:13:28;3.17;;;2.20;;
58992;SDS011;44782;0.000;0.000;2024-02-21T05:15:44;2.20;;;2.00;;
58992;SDS011;44782;0.000;0.000;2024-02-21T05:17:59;2.43;;;2.00;;
58992;SDS011;44782;0.000;0.000;2024-02-21T05:20:15;2.50;;;1.87;;
58992;SDS011;44782;0.000;0.000;2024-02-21T05:22:31;1.83;;;1.63;;
58992;SDS011;44782;0.000;0.000;2024-02-21T05:24:46;2.17;;;1.97;;
58992;SDS011;44782;0.000;0.000;2024-02-21T05:27:02;1.77;;;1.67;;
58992;SDS011;44782;0.000;0.000;2024-02-21T05:29:17;2.00;;;1.70;;
58992;SDS011;44782;0.000;0.000;2024-02-21T05:31:54;1.80;;;1.70;;
58992;SDS011;44782;0.000;0.000;2024-02-21T05:34:13;1.80;;;1.70;;
58992;SDS011;44782;0.000;0.000;2024-02-21T05:36:29;2.00;;;1.80;;
58992;SDS011;44782;0.000;0.000;2024-02-21T05:38:45;1.97;;;1.87;;
58992;SDS011;44782;0.000;0.000;2024-02-21T05:41:01;1.67;;;1.57;;
58992;SDS011;44782;0.000;0.000;2024-02-21T05:43:16;1.80;;;1.40;;
58992;SDS011;44782;0.000;0.000;2024-02-21T05:45:32;1.50;;;1.40;;
58992;SDS011;44782;0.000;0.000;2024-02-21T05:47:47;1.97;;;1.50;;
58992;SDS011;44782;0.000;0.000;2024-02-21T05:50:03;1.53;;;1.43;;
58992;SDS011;44782;0.000;0.000;2024-02-21T05:52:19;2.00;;;1.90;;
58992;SDS011;44782;0.000;0.000;2024-02-21T05:54:37;1.80;;;1.70;;
58992;SDS011;44782;0.000;0.000;2024-02-21T05:56:54;1.40;;;1.30;;
58992;SDS011;44782;0.000;0.000;2024-02-21T05:59:10;1.80;;;1.70;;
58992;SDS011;44782;0.000;0.000;2024-02-21T06:01:25;1.90;;;1.80;;
58992;SDS011;44782;0.000;0.000;2024-02-21T06:03:41;1.47;;;1.37;;
58992;SDS011;44782;0.000;0.000;2024-02-21T06:05:56;1.80;;;1.70;;
58992;SDS011;44782;0.000;0.000;2024-02-21T06:08:12;1.77;;;1.67;;
58992;SDS011;44782;0.000;0.000;2024-02-21T06:10:28;1.92;;;1.80;;
58992;SDS011;44782;0.000;0.000;2024-02-21T06:12:44;1.50;;;1.40;;
58992;SDS011;44782;0.000;0.000;2024-02-21T06:14:59;1.70;;;1.60;;
58992;SDS011;44782;0.000;0.000;2024-02-21T06:17:15;2.05;;;1.88;;
58992;SDS011;44782;0.000;0.000;2024-02-21T06:19:30;2.03;;;1.83;;
58992;SDS011;44782;0.000;0.000;2024-02-21T06:21:46;2.00;;;1.85;;
58992;SDS011;44782;0.000;0.000;2024-02-21T06:24:02;1.80;;;1.65;;
58992;SDS011;44782;0.000;0.000;2024-02-21T06:26:18;2.10;;;1.90;;
58992;SDS011;44782;0.000;0.000;2024-02-21T06:28:34;2.20;;;2.00;;
58992;SDS011;44782;0.000;0.000;2024-02-21T06:30:49;2.10;;;1.90;;
58992;SDS011;44782;0.000;0.000;2024-02-21T06:33:05;1.95;;;1.75;;
58992;SDS011;44782;0.000;0.000;2024-02-21T06:35:22;2.20;;;2.00;;
58992;SDS011;44782;0.000;0.000;2024-02-21T06:37:41;2.30;;;2.00;;
58992;SDS011;44782;0.000;0.000;2024-02-21T06:39:56;1.92;;;1.73;;
58992;SDS011;44782;0.000;0.000;2024-02-21T06:42:12;2.10;;;1.90;;
58992;SDS011;44782;0.000;0.000;2024-02-21T06:44:28;2.28;;;2.00;;
58992;SDS011;44782;0.000;0.000;2024-02-21T06:46:43;2.30;;;2.10;;
58992;SDS011;44782;0.000;0.000;2024-02-21T06:48:59;2.28;;;2.00;;
58992;SDS011;44782;0.000;0.000;2024-02-21T06:51:15;3.25;;;2.88;;
58992;SDS011;44782;0.000;0.000;2024-02-21T06:53:31;3.05;;;2.70;;
58992;SDS011;44782;0.000;0.000;2024-02-21T06:55:47;2.72;;;2.53;;
58992;SDS011;44782;0.000;0.000;2024-02-21T06:58:02;3.20;;;2.90;;
58992;SDS011;44782;0.000;0.000;2024-02-21T07:00:18;9.27;;;6.78;;
58992;SDS011;44782;0.000;0.000;2024-02-21T07:02:34;10.48;;;8.02;;
58992;SDS011;44782;0.000;0.000;2024-02-21T07:04:49;9.37;;;7.13;;
58992;SDS011;44782;0.000;0.000;2024-02-21T07:07:05;12.45;;;8.50;;
58992;SDS011;44782;0.000;0.000;2024-02-21T07:09:21;8.75;;;7.13;;
58992;SDS011;44782;0.000;0.000;2024-02-21T07:11:36;11.63;;;8.57;;
58992;SDS011;44782;0.000;0.000;2024-02-21T07:13:52;10.10;;;8.20;;
58992;SDS011;44782;0.000;0.000;2024-02-21T07:16:08;12.07;;;8.43;;
58992;SDS011;44782;0.000;0.000;2024-02-21T07:18:23;10.63;;;7.60;;
58992;SDS011;44782;0.000;0.000;2024-02-21T07:20:40;11.93;;;8.77;;
58992;SDS011;44782;0.000;0.000;2024-02-21T07:22:56;10.90;;;8.98;;
58992;SDS011;44782;0.000;0.000;2024-02-21T07:25:12;12.20;;;9.03;;
58992;SDS011;44782;0.000;0.000;2024-02-21T07:27:27;12.52;;;9.43;;
58992;SDS011;44782;0.000;0.000;2024-02-21T07:29:45;12.73;;;9.87;;
58992;SDS011;44782;0.000;0.000;2024-02-21T07:32:03;13.52;;;9.95;;
58992;SDS011;44782;0.000;0.000;2024-02-21T07:34:19;12.93;;;9.55;;
58992;SDS011;44782;0.000;0.000;2024-02-21T07:36:35;13.35;;;9.73;;
58992;SDS011;44782;0.000;0.000;2024-02-21T07:38:52;12.25;;;9.65;;
58992;SDS011;44782;0.000;0.000;2024-02-21T07:41:08;12.07;;;9.55;;
58992;SDS011;44782;0.000;0.000;2024-02-21T07:43:24;11.18;;;9.18;;
58992;SDS011;44782;0.000;0.000;2024-02-21T07:45:41;12.60;;;9.77;;
58992;SDS011;44782;0.000;0.000;2024-02-21T07:47:57;15.00;;;10.07;;
58992;SDS011;44782;0.000;0.000;2024-02-21T07:50:12;11.77;;;9.50;;
58992;SDS011;44782;0.000;0.000;2024-02-21T07:52:28;10.73;;;8.60;;
58992;SDS011;44782;0.000;0.000;2024-02-21T07:54:43;11.52;;;9.25;;
58992;SDS011;44782;0.000;0.000;2024-02-21T07:56:59;11.48;;;9.07;;
58992;SDS011;44782;0.000;0.000;2024-02-21T07:59:15;10.73;;;8.40;;
58992;SDS011;44782;0.000;0.000;2024-02-21T08:01:30;12.53;;;8.93;;
58992;SDS011;44782;0.000;0.000;2024-02-21T08:03:46;11.17;;;8.33;;
58992;SDS011;44782;0.000;0.000;2024-02-21T08:06:02;12.70;;;8.40;;
58992;SDS011;44782;0.000;0.000;2024-02-21T08:08:18;11.13;;;8.23;;
58992;SDS011;44782;0.000;0.000;2024-02-21T08:10:36;11.10;;;8.30;;
58992;SDS011;44782;0.000;0.000;2024-02-21T08:12:54;8.93;;;7.70;;
58992;SDS011;44782;0.000;0.000;2024-02-21T08:15:09;8.97;;;7.37;;
58992;SDS011;44782;0.000;0.000;2024-02-21T08:17:27;9.57;;;7.43;;
58992;SDS011;44782;0.000;0.000;2024-02-21T08:19:43;9.17;;;7.20;;
58992;SDS011;44782;0.000;0.000;2024-02-21T08:21:58;9.47;;;6.90;;
58992;SDS011;44782;0.000;0.000;2024-02-21T08:24:14;8.63;;;6.87;;
58992;SDS011;44782;0.000;0.000;2024-02-21T08:26:30;8.50;;;6.90;;
58992;SDS011;44782;0.000;0.000;2024-02-21T08:28:46;8.10;;;6.80;;
58992;SDS011;44782;0.000;0.000;2024-02-21T08:31:02;8.13;;;6.40;;
58992;SDS011;44782;0.000;0.000;2024-02-21T08:33:17;9.23;;;6.70;;
58992;SDS011;44782;0.000;0.000;2024-02-21T08:35:33;7.63;;;6.80;;
58992;SDS011;44782;0.000;0.000;2024-02-21T08:37:49;6.87;;;6.10;;
58992;SDS011;44782;0.000;0.000;2024-02-21T08:40:05;7.35;;;5.90;;
58992;SDS011;44782;0.000;0.000;2024-02-21T08:42:23;7.53;;;6.30;;
58992;SDS011;44782;0.000;0.000;2024-02-21T08:44:39;6.87;;;5.70;;
58992;SDS011;44782;0.000;0.000;2024-02-21T08:46:56;7.27;;;5.90;;
58992;SDS011;44782;0.000;0.000;2024-02-21T08:49:11;7.47;;;5.63;;
58992;SDS011;44782;0.000;0.000;2024-02-21T08:51:30;6.90;;;5.57;;
58992;SDS011;44782;0.000;0.000;2024-02-21T08:53:46;6.67;;;5.83;;
58992;SDS011;44782;0.000;0.000;2024-02-21T08:56:02;6.63;;;5.20;;
58992;SDS011;44782;0.000;0.000;2024-02-21T08:58:18;7.60;;;5.83;;
58992;SDS011;44782;0.000;0.000;2024-02-21T09:00:33;6.50;;;5.20;;
58992;SDS011;44782;0.000;0.000;2024-02-21T09:02:49;6.73;;;5.70;;
58992;SDS011;44782;0.000;0.000;2024-02-21T09:05:04;6.67;;;5.37;;
58992;SDS011;44782;0.000;0.000;2024-02-21T09:07:20;6.87;;;5.20;;
58992;SDS011;44782;0.000;0.000;2024-02-21T09:09:36;7.50;;;5.73;;
58992;SDS011;44782;0.000;0.000;2024-02-21T09:11:53;6.47;;;5.37;;
58992;SDS011;44782;0.000;0.000;2024-02-21T09:14:09;6.03;;;5.00;;
58992;SDS011;44782;0.000;0.000;2024-02-21T09:16:24;6.43;;;4.93;;
58992;SDS011;44782;0.000;0.000;2024-02-21T09:18:40;5.33;;;4.53;;
58992;SDS011;44782;0.000;0.000;2024-02-21T09:20:56;6.20;;;4.97;;
58992;SDS011;44782;0.000;0.000;2024-02-21T09:23:12;6.70;;;5.27;;
58992;SDS011;44782;0.000;0.000;2024-02-21T09:25:27;6.47;;;5.20;;
58992;SDS011;44782;0.000;0.000;2024-02-21T09:27:43;5.73;;;4.97;;
58992;SDS011;44782;0.000;0.000;2024-02-21T09:30:00;5.90;;;4.80;;
58992;SDS011;44782;0.000;0.000;2024-02-21T09:32:15;5.97;;;5.10;;
58992;SDS011;44782;0.000;0.000;2024-02-21T09:34:31;6.07;;;4.70;;
58992;SDS011;44782;0.000;0.000;2024-02-21T09:36:47;5.63;;;5.03;;
58992;SDS011;44782;0.000;0.000;2024-02-21T09:39:02;5.73;;;4.97;;
58992;SDS011;44782;0.000;0.000;2024-02-21T09:41:19;5.20;;;4.50;;
58992;SDS011;44782;0.000;0.000;2024-02-21T09:43:42;5.60;;;4.43;;
58992;SDS011;44782;0.000;0.000;2024-02-21T09:45:58;6.27;;;5.13;;
58992;SDS011;44782;0.000;0.000;2024-02-21T09:51:04;5.47;;;4.30;;
58992;SDS011;44782;0.000;0.000;2024-02-21T09:53:22;5.30;;;4.80;;
58992;SDS011;44782;0.000;0.000;2024-02-21T09:55:40;5.53;;;4.40;;
58992;SDS011;44782;0.000;0.000;2024-02-21T09:57:56;5.27;;;4.50;;
58992;SDS011;44782;0.000;0.000;2024-02-21T10:00:13;4.37;;;3.97;;
58992;SDS011;44782;0.000;0.000;2024-02-21T10:02:36;5.50;;;4.23;;
58992;SDS011;44782;0.000;0.000;2024-02-21T10:04:53;3.90;;;3.60;;
58992;SDS011;44782;0.000;0.000;2024-02-21T10:07:09;4.87;;;4.33;;
58992;SDS011;44782;0.000;0.000;2024-02-21T10:09:26;5.20;;;3.87;;
58992;SDS011;44782;0.000;0.000;2024-02-21T10:11:43;4.70;;;4.20;;
58992;SDS011;44782;0.000;0.000;2024-02-21T10:14:07;5.60;;;4.30;;
58992;SDS011;44782;0.000;0.000;2024-02-21T10:16:23;5.00;;;4.20;;
58992;SDS011;44782;0.000;0.000;2024-02-21T10:18:39;5.17;;;4.20;;
58992;SDS011;44782;0.000;0.000;2024-02-21T10:23:16;4.53;;;4.03;;
58992;SDS011;44782;0.000;0.000;2024-02-21T10:25:32;4.27;;;3.87;;
58992;SDS011;44782;0.000;0.000;2024-02-21T10:27:47;4.27;;;3.80;;
58992;SDS011;44782;0.000;0.000;2024-02-21T10:30:04;4.50;;;4.00;;
58992;SDS011;44782;0.000;0.000;2024-02-21T10:32:22;3.90;;;3.33;;
58992;SDS011;44782;0.000;0.000;2024-02-21T10:34:38;4.90;;;3.97;;
58992;SDS011;44782;0.000;0.000;2024-02-21T10:37:00;4.43;;;3.63;;
58992;SDS011;44782;0.000;0.000;2024-02-21T10:39:25;4.33;;;3.50;;
58992;SDS011;44782;0.000;0.000;2024-02-21T10:41:40;3.80;;;3.50;;
58992;SDS011;44782;0.000;0.000;2024-02-21T10:43:57;4.40;;;3.50;;
58992;SDS011;44782;0.000;0.000;2024-02-21T10:46:14;5.03;;;3.80;;
58992;SDS011;44782;0.000;0.000;2024-02-21T10:48:57;4.20;;;3.80;;
58992;SDS011;44782;0.000;0.000;2024-02-21T10:51:16;3.90;;;3.50;;
58992;SDS011;44782;0.000;0.000;2024-02-21T10:53:42;5.73;;;3.67;;
58992;SDS011;44782;0.000;0.000;2024-02-21T10:56:06;3.97;;;3.57;;
58992;SDS011;44782;0.000;0.000;2024-02-21T10:58:33;4.00;;;3.27;;
58992;SDS011;44782;0.000;0.000;2024-02-21T11:00:48;3.90;;;3.40;;
58992;SDS011;44782;0.000;0.000;2024-02-21T11:03:05;3.83;;;3.33;;
58992;SDS011;44782;0.000;0.000;2024-02-21T11:05:21;3.63;;;3.33;;
58992;SDS011;44782;0.000;0.000;2024-02-21T11:07:37;3.73;;;3.43;;
58992;SDS011;44782;0.000;0.000;2024-02-21T11:09:53;4.47;;;3.50;;
58992;SDS011;44782;0.000;0.000;2024-02-21T11:12:12;4.17;;;3.67;;
58992;SDS011;44782;0.000;0.000;2024-02-21T11:14:37;4.93;;;3.40;;
58992;SDS011;44782;0.000;0.000;2024-02-21T11:16:54;3.67;;;3.30;;
58992;SDS011;44782;0.000;0.000;2024-02-21T11:19:22;3.90;;;3.50;;
58992;SDS011;44782;0.000;0.000;2024-02-21T11:21:40;3.50;;;3.20;;
58992;SDS011;44782;0.000;0.000;2024-02-21T11:23:56;4.57;;;3.40;;
58992;SDS011;44782;0.000;0.000;2024-02-21T11:26:18;3.53;;;3.23;;
58992;SDS011;44782;0.000;0.000;2024-02-21T11:28:34;3.30;;;3.00;;
58992;SDS011;44782;0.000;0.000;2024-02-21T11:30:53;3.47;;;3.17;;
58992;SDS011;44782;0.000;0.000;2024-02-21T11:33:19;4.03;;;3.27;;
58992;SDS011;44782;0.000;0.000;2024-02-21T11:35:37;3.40;;;3.10;;
58992;SDS011;44782;0.000;0.000;2024-02-21T11:37:53;3.30;;;3.00;;
58992;SDS011;44782;0.000;0.000;2024-02-21T11:40:09;3.03;;;2.73;;
58992;SDS011;44782;0.000;0.000;2024-02-21T11:42:25;4.07;;;3.30;;
58992;SDS011;44782;0.000;0.000;2024-02-21T11:44:42;3.70;;;3.20;;
58992;SDS011;44782;0.000;0.000;2024-02-21T11:46:58;3.90;;;3.20;;
58992;SDS011;44782;0.000;0.000;2024-02-21T11:49:13;4.00;;;3.20;;
58992;SDS011;44782;0.000;0.000;2024-02-21T11:51:29;3.33;;;2.80;;
58992;SDS011;44782;0.000;0.000;2024-02-21T11:53:45;4.17;;;3.10;;
58992;SDS011;44782;0.000;0.000;2024-02-21T11:56:01;3.30;;;3.00;;
58992;SDS011;44782;0.000;0.000;2024-02-21T11:58:16;3.20;;;2.90;;
58992;SDS011;44782;0.000;0.000;2024-02-21T12:00:32;3.03;;;2.80;;
58992;SDS011;44782;0.000;0.000;2024-02-21T12:02:47;3.10;;;2.80;;
58992;SDS011;44782;0.000;0.000;2024-02-21T12:05:05;3.20;;;2.90;;
58992;SDS011;44782;0.000;0.000;2024-02-21T12:07:21;3.20;;;2.90;;
58992;SDS011;44782;0.000;0.000;2024-02-21T12:09:38;3.50;;;2.90;;
58992;SDS011;44782;0.000;0.000;2024-02-21T12:11:58;3.30;;;3.00;;
58992;SDS011;44782;0.000;0.000;2024-02-21T12:14:16;3.30;;;3.00;;
58992;SDS011;44782;0.000;0.000;2024-02-21T12:16:32;3.87;;;3.30;;
58992;SDS011;44782;0.000;0.000;2024-02-21T12:18:48;3.37;;;3.07;;
58992;SDS011;44782;0.000;0.000;2024-02-21T12:21:04;3.30;;;3.00;;
58992;SDS011;44782;0.000;0.000;2024-02-21T12:23:20;3.20;;;2.90;;
58992;SDS011;44782;0.000;0.000;2024-02-21T12:25:36;3.10;;;2.80;;
58992;SDS011;44782;0.000;0.000;2024-02-21T12:27:51;3.40;;;3.03;;
58992;SDS011;44782;0.000;0.000;2024-02-21T12:30:07;3.30;;;3.00;;
58992;SDS011;44782;0.000;0.000;2024-02-21T12:32:25;3.30;;;3.00;;
58992;SDS011;44782;0.000;0.000;2024-02-21T12:34:40;3.03;;;2.70;;
58992;SDS011;44782;0.000;0.000;2024-02-21T12:36:56;3.67;;;3.27;;
58992;SDS011;44782;0.000;0.000;2024-02-21T12:39:11;3.20;;;2.90;;
58992;SDS011;44782;0.000;0.000;2024-02-21T12:41:27;3.20;;;3.00;;
58992;SDS011;44782;0.000;0.000;2024-02-21T12:43:44;3.97;;;2.70;;
58992;SDS011;44782;0.000;0.000;2024-02-21T12:46:00;3.27;;;2.77;;
58992;SDS011;44782;0.000;0.000;2024-02-21T12:48:16;3.20;;;2.90;;
58992;SDS011;44782;0.000;0.000;2024-02-21T12:50:32;3.37;;;3.07;;
58992;SDS011;44782;0.000;0.000;2024-02-21T12:52:47;3.27;;;2.90;;
58992;SDS011;44782;0.000;0.000;2024-02-21T12:55:04;2.83;;;2.63;;
58992;SDS011;44782;0.000;0.000;2024-02-21T12:57:20;3.00;;;2.70;;
58992;SDS011;44782;0.000;0.000;2024-02-21T12:59:37;3.10;;;2.77;;
58992;SDS011;44782;0.000;0.000;2024-02-21T13:01:52;3.20;;;2.70;;
58992;SDS011;44782;0.000;0.000;2024-02-21T13:04:08;3.07;;;2.70;;
58992;SDS011;44782;0.000;0.000;2024-02-21T13:06:23;3.03;;;2.73;;
58992;SDS011;44782;0.000;0.000;2024-02-21T13:08:39;2.60;;;2.40;;
58992;SDS011;44782;0.000;0.000;2024-02-21T13:10:56;2.73;;;2.53;;
58992;SDS011;44782;0.000;0.000;2024-02-21T13:13:12;2.83;;;2.47;;
58992;SDS011;44782;0.000;0.000;2024-02-21T13:15:27;2.63;;;2.43;;
58992;SDS011;44782;0.000;0.000;2024-02-21T13:17:46;2.57;;;2.33;;
58992;SDS011;44782;0.000;0.000;2024-02-21T13:20:02;2.63;;;2.40;;
58992;SDS011;44782;0.000;0.000;2024-02-21T13:22:18;2.60;;;2.40;;
58992;SDS011;44782;0.000;0.000;2024-02-21T13:24:37;3.10;;;2.60;;
58992;SDS011;44782;0.000;0.000;2024-02-21T13:26:52;2.80;;;2.60;;
58992;SDS011;44782;0.000;0.000;2024-02-21T13:29:09;2.80;;;2.60;;
58992;SDS011;44782;0.000;0.000;2024-02-21T13:31:25;3.20;;;2.67;;
58992;SDS011;44782;0.000;0.000;2024-02-21T13:33:41;2.53;;;2.33;;
58992;SDS011;44782;0.000;0.000;2024-02-21T13:35:56;2.80;;;2.60;;
58992;SDS011;44782;0.000;0.000;2024-02-21T13:38:12;2.70;;;2.40;;
58992;SDS011;44782;0.000;0.000;2024-02-21T13:40:29;2.93;;;2.60;;
58992;SDS011;44782;0.000;0.000;2024-02-21T13:42:44;2.97;;;2.67;;
58992;SDS011;44782;0.000;0.000;2024-02-21T13:45:00;3.27;;;2.30;;
58992;SDS011;44782;0.000;0.000;2024-02-21T13:47:16;2.63;;;2.43;;
58992;SDS011;44782;0.000;0.000;2024-02-21T13:49:32;2.60;;;2.40;;
58992;SDS011;44782;0.000;0.000;2024-02-21T13:51:48;2.50;;;2.30;;
58992;SDS011;44782;0.000;0.000;2024-02-21T13:54:04;2.50;;;2.30;;
58992;SDS011;44782;0.000;0.000;2024-02-21T13:56:20;2.60;;;2.40;;
58992;SDS011;44782;0.000;0.000;2024-02-21T13:58:35;3.10;;;2.50;;
58992;SDS011;44782;0.000;0.000;2024-02-21T14:00:52;4.50;;;3.40;;
58992;SDS011;44782;0.000;0.000;2024-02-21T14:03:08;7.50;;;4.60;;